PWSweather.com
Personal Weather Stations
Station Observations
J24K28P63
Vysocina, PocatkyCZ 39464

VysocinaPocatkyCZ 39464

Lat: 49.2594238, Lon: 15.2331769

Elevation: 2011

Station Type: Vantage Pro2+

http://meteo-jirkalina.com

Latest ConditionsUpdated 10:50:02 AM GMT+01:01 Thursday, Jul 18, 2019
Currently Today's Max Today's Min Today's Average
Temperature 78.8°F26.0°C 78.8°F26.0°C 49.5°F9.7°C 59.5°F15.3°C
Dew Point 53.8°F12.1°C 58.1°F14.5°C 43.9°F6.6°C 52.1°F11.2°C
Winds 3.0 mph NW4.8 kmh NW 5.5 mph -8.9 kmh - - 0.6 mph 1.0 kmh
Wind Gusts 6.0 mph9.7 kmh 8.0 mph12.9 kmh - -
Humidity 42% 99% 37% 80%
Pressure 29.90 in1012.5 mb 29.91 in1012.9 mb 29.83 in1010.2 mb -
Hour Temp Dew Point Humidity Winds Wind Gusts Pressure Precip Precip Rate Daily Precip Total
10:50 AM 78.8°F26.0°C 53.8°F12.1°C 42% 3.0 mph NW4.8 kmh NW 6.0 mph9.7 kmh 29.90 in1012.5 mb - 0.00 in0.0 mm 0.11 in2.8 mm
10:40 AM 78.2°F25.7°C 53.9°F12.2°C 43% 1.0 mph N1.6 kmh N 3.0 mph4.8 kmh 29.90 in1012.5 mb - 0.00 in0.0 mm 0.11 in2.8 mm
10:30 AM 71.6°F22.0°C 43.9°F6.6°C 37% 0.3 mph SE0.5 kmh SE 3.0 mph4.8 kmh 29.85 in1010.8 mb - 0.00 in0.0 mm 0.13 in3.3 mm
10:20 AM 77.0°F25.0°C 54.1°F12.3°C 45% 2.0 mph NW3.2 kmh NW 3.0 mph4.8 kmh 29.90 in1012.5 mb - 0.00 in0.0 mm 0.11 in2.8 mm
10:10 AM 76.0°F24.4°C 54.3°F12.4°C 47% Calm Calm 2.0 mph3.2 kmh 29.90 in1012.5 mb - 0.00 in0.0 mm 0.11 in2.8 mm
10:00 AM 76.8°F24.9°C 55.7°F13.2°C 48% 2.0 mph NE3.2 kmh NE 3.0 mph4.8 kmh 29.90 in1012.5 mb - 0.00 in0.0 mm 0.11 in2.8 mm
09:50 AM 76.5°F24.7°C 55.3°F12.9°C 48% Calm Calm -- 29.90 in1012.5 mb - 0.00 in0.0 mm 0.11 in2.8 mm
09:40 AM 75.1°F23.9°C 55.2°F12.9°C 50% Calm Calm 1.0 mph1.6 kmh 29.91 in1012.9 mb - 0.00 in0.0 mm 0.11 in2.8 mm
09:30 AM 70.6°F21.4°C 47.6°F8.7°C 44% Calm Calm -- 29.84 in1010.5 mb - 0.00 in0.0 mm 0.13 in3.3 mm
09:20 AM 73.9°F23.3°C 55.2°F12.9°C 52% 1.0 mph NNW1.6 kmh NNW 3.0 mph4.8 kmh 29.91 in1012.9 mb - 0.00 in0.0 mm 0.11 in2.8 mm
09:10 AM 73.1°F22.8°C 56.4°F13.6°C 56% Calm Calm 1.0 mph1.6 kmh 29.91 in1012.9 mb - 0.00 in0.0 mm 0.11 in2.8 mm
09:00 AM 69.7°F20.9°C 52.3°F11.3°C 54% 1.1 mph WNW1.8 kmh WNW 2.0 mph3.2 kmh 29.84 in1010.5 mb - 0.00 in0.0 mm 0.13 in3.3 mm
08:50 AM 72.6°F22.6°C 55.5°F13.1°C 55% 1.0 mph NW1.6 kmh NW 2.0 mph3.2 kmh 29.91 in1012.9 mb - 0.00 in0.0 mm 0.11 in2.8 mm
08:40 AM 71.5°F21.9°C 55.5°F13.1°C 57% 2.0 mph NW3.2 kmh NW 3.0 mph4.8 kmh 29.91 in1012.9 mb - 0.00 in0.0 mm 0.11 in2.8 mm
08:30 AM 67.6°F19.8°C 57.1°F13.9°C 69% 2.4 mph WNW3.9 kmh WNW 3.0 mph4.8 kmh 29.84 in1010.5 mb - 0.01 in0.3 mm 0.13 in3.3 mm
08:20 AM 69.2°F20.7°C 56.5°F13.6°C 64% 1.0 mph NNW1.6 kmh NNW 3.0 mph4.8 kmh 29.91 in1012.9 mb - 0.00 in0.0 mm 0.10 in2.5 mm
08:10 AM 65.3°F18.5°C 54.9°F12.7°C 69% Calm Calm 1.0 mph1.6 kmh 29.91 in1012.9 mb - 0.00 in0.0 mm 0.10 in2.5 mm
08:00 AM 63.9°F17.7°C 54.3°F12.4°C 71% Calm Calm 1.0 mph1.6 kmh 29.91 in1012.9 mb - 0.00 in0.0 mm 0.10 in2.5 mm
07:50 AM 64.3°F17.9°C 55.5°F13.1°C 73% 1.0 mph NNW1.6 kmh NNW 1.0 mph1.6 kmh 29.91 in1012.9 mb - 0.00 in0.0 mm 0.10 in2.5 mm
07:40 AM 63.0°F17.2°C 54.2°F12.3°C 73% Calm Calm 1.0 mph1.6 kmh 29.91 in1012.9 mb - 0.00 in0.0 mm 0.10 in2.5 mm
07:30 AM 60.5°F15.8°C 56.0°F13.3°C 85% Calm Calm -- 29.83 in1010.2 mb - 0.00 in0.0 mm 0.12 in3.0 mm
07:20 AM 62.6°F17.0°C 54.5°F12.5°C 75% Calm Calm -- 29.91 in1012.9 mb - 0.00 in0.0 mm 0.10 in2.5 mm
07:10 AM 60.3°F15.7°C 54.1°F12.3°C 80% Calm Calm 2.0 mph3.2 kmh 29.91 in1012.9 mb - 0.00 in0.0 mm 0.10 in2.5 mm
07:00 AM 60.7°F15.9°C 58.1°F14.5°C 91% Calm Calm -- 29.83 in1010.2 mb - 0.00 in0.0 mm 0.12 in3.0 mm
06:50 AM 58.9°F14.9°C 53.4°F11.9°C 82% Calm Calm 3.0 mph4.8 kmh 29.90 in1012.5 mb - 0.00 in0.0 mm 0.10 in2.5 mm
06:40 AM 59.1°F15.1°C 53.0°F11.7°C 80% 1.0 mph NNW1.6 kmh NNW 2.0 mph3.2 kmh 29.91 in1012.9 mb - 0.00 in0.0 mm 0.10 in2.5 mm
06:30 AM 59.2°F15.1°C 58.0°F14.4°C 96% Calm Calm -- 29.83 in1010.2 mb - 0.00 in0.0 mm 0.12 in3.0 mm
06:20 AM 59.9°F15.5°C 53.7°F12.1°C 80% 2.0 mph NNW3.2 kmh NNW 3.0 mph4.8 kmh 29.91 in1012.9 mb - 0.00 in0.0 mm 0.10 in2.5 mm
06:10 AM 58.2°F14.6°C 53.4°F11.9°C 84% 2.0 mph NNW3.2 kmh NNW 3.0 mph4.8 kmh 29.90 in1012.5 mb - 0.00 in0.0 mm 0.10 in2.5 mm
06:00 AM 56.7°F13.7°C 52.9°F11.6°C 87% 1.0 mph NNW1.6 kmh NNW 2.0 mph3.2 kmh 29.91 in1012.9 mb - 0.00 in0.0 mm 0.10 in2.5 mm
05:50 AM 55.4°F13.0°C 52.5°F11.4°C 90% Calm Calm 2.0 mph3.2 kmh 29.91 in1012.9 mb - 0.00 in0.0 mm 0.10 in2.5 mm
05:40 AM 54.1°F12.3°C 51.6°F10.9°C 91% Calm Calm -- 29.91 in1012.9 mb - 0.00 in0.0 mm 0.10 in2.5 mm
05:30 AM 55.7°F13.2°C 55.4°F13.0°C 99% 2.2 mph NE3.5 kmh NE 3.0 mph4.8 kmh 29.83 in1010.2 mb - 0.00 in0.0 mm 0.12 in3.0 mm
05:20 AM 51.9°F11.1°C 50.2°F10.1°C 94% Calm Calm -- 29.90 in1012.5 mb - 0.00 in0.0 mm 0.10 in2.5 mm
05:10 AM 51.2°F10.7°C 49.5°F9.7°C 94% Calm Calm -- 29.90 in1012.5 mb - 0.00 in0.0 mm 0.10 in2.5 mm
05:00 AM 55.4°F13.0°C 54.8°F12.7°C 98% Calm Calm -- 29.83 in1010.2 mb - 0.04 in1.0 mm 0.12 in3.0 mm
04:50 AM 50.4°F10.2°C 48.7°F9.3°C 94% Calm Calm -- 29.90 in1012.5 mb - 0.00 in0.0 mm 0.06 in1.5 mm
04:40 AM 50.4°F10.2°C 48.7°F9.3°C 94% Calm Calm -- 29.90 in1012.5 mb - 0.00 in0.0 mm 0.06 in1.5 mm
04:30 AM 55.6°F13.1°C 54.5°F12.5°C 96% Calm Calm -- 29.84 in1010.5 mb - 0.06 in1.5 mm 0.08 in2.0 mm
04:20 AM 50.0°F10.0°C 48.3°F9.1°C 94% Calm Calm -- 29.90 in1012.5 mb - 0.00 in0.0 mm 0.00 in0.0 mm
04:10 AM 49.5°F9.7°C 47.8°F8.8°C 94% Calm Calm -- 29.90 in1012.5 mb - 0.00 in0.0 mm 0.00 in0.0 mm
04:00 AM 49.7°F9.8°C 48.0°F8.9°C 94% Calm Calm 1.0 mph1.6 kmh 29.90 in1012.5 mb - 0.00 in0.0 mm 0.00 in0.0 mm
03:50 AM 49.9°F9.9°C 48.2°F9.0°C 94% Calm Calm -- 29.90 in1012.5 mb - 0.00 in0.0 mm 0.00 in0.0 mm
03:40 AM 49.8°F9.9°C 47.8°F8.8°C 93% Calm Calm -- 29.90 in1012.5 mb - 0.00 in0.0 mm 0.00 in0.0 mm
03:30 AM 50.5°F10.3°C 48.6°F9.2°C 93% Calm Calm -- 29.90 in1012.5 mb - 0.00 in0.0 mm 0.00 in0.0 mm
03:20 AM 50.8°F10.4°C 48.8°F9.3°C 93% Calm Calm -- 29.90 in1012.5 mb - 0.00 in0.0 mm 0.00 in0.0 mm
03:10 AM 50.6°F10.3°C 48.7°F9.3°C 93% Calm Calm -- 29.90 in1012.5 mb - 0.00 in0.0 mm 0.00 in0.0 mm
03:00 AM 57.2°F14.0°C 53.4°F11.9°C 87% 3.9 mph E6.3 kmh E 5.0 mph8.0 kmh 29.84 in1010.5 mb - 0.00 in0.0 mm 0.00 in0.0 mm
02:50 AM 51.4°F10.8°C 49.2°F9.6°C 92% Calm Calm -- 29.89 in1012.2 mb - 0.00 in0.0 mm 0.00 in0.0 mm
02:40 AM 51.1°F10.6°C 48.8°F9.3°C 92% Calm Calm -- 29.90 in1012.5 mb - 0.00 in0.0 mm 0.00 in0.0 mm
02:30 AM 57.0°F13.9°C 52.5°F11.4°C 85% 5.5 mph NE8.9 kmh NE 8.0 mph12.9 kmh 29.85 in1010.8 mb - 0.00 in0.0 mm 0.00 in0.0 mm
02:20 AM 51.6°F10.9°C 49.3°F9.6°C 92% Calm Calm -- 29.90 in1012.5 mb - 0.00 in0.0 mm 0.00 in0.0 mm
02:10 AM 51.8°F11.0°C 49.3°F9.6°C 91% Calm Calm -- 29.90 in1012.5 mb - 0.00 in0.0 mm 0.00 in0.0 mm
02:00 AM 52.0°F11.1°C 49.5°F9.7°C 91% Calm Calm -- 29.90 in1012.5 mb - 0.00 in0.0 mm 0.00 in0.0 mm
01:50 AM 52.5°F11.4°C 49.6°F9.8°C 90% Calm Calm -- 29.90 in1012.5 mb - 0.00 in0.0 mm 0.00 in0.0 mm
01:40 AM 52.5°F11.4°C 49.7°F9.8°C 90% Calm Calm -- 29.90 in1012.5 mb - 0.00 in0.0 mm 0.00 in0.0 mm
01:30 AM 52.8°F11.6°C 51.4°F10.8°C 95% 0.5 mph NE0.8 kmh NE 2.0 mph3.2 kmh 29.84 in1010.5 mb - 0.00 in0.0 mm 0.00 in0.0 mm
01:20 AM 53.1°F11.7°C 49.6°F9.8°C 88% Calm Calm -- 29.90 in1012.5 mb - 0.00 in0.0 mm 0.00 in0.0 mm
01:10 AM 53.8°F12.1°C 50.6°F10.3°C 89% Calm Calm -- 29.90 in1012.5 mb - 0.00 in0.0 mm 0.00 in0.0 mm
01:00 AM 53.1°F11.7°C 51.7°F10.9°C 95% Calm Calm -- 29.83 in1010.2 mb - 0.00 in0.0 mm 0.00 in0.0 mm
12:50 AM 53.6°F12.0°C 49.8°F9.9°C 87% Calm Calm -- 29.90 in1012.5 mb - 0.00 in0.0 mm 0.00 in0.0 mm
12:40 AM 53.8°F12.1°C 50.0°F10.0°C 87% Calm Calm 1.0 mph1.6 kmh 29.90 in1012.5 mb - 0.00 in0.0 mm 0.00 in0.0 mm
12:30 AM 53.5°F11.9°C 52.1°F11.2°C 95% Calm Calm -- 29.84 in1010.5 mb - 0.00 in0.0 mm 0.00 in0.0 mm
12:20 AM 54.3°F12.4°C 50.2°F10.1°C 86% 1.0 mph NNW1.6 kmh NNW 1.0 mph1.6 kmh 29.90 in1012.5 mb - 0.00 in0.0 mm 0.00 in0.0 mm
12:10 AM 54.4°F12.4°C 50.3°F10.2°C 86% Calm Calm -- 29.91 in1012.9 mb - 0.00 in0.0 mm 0.00 in0.0 mm
12:00 AM 53.9°F12.2°C 52.2°F11.2°C 94% Calm Calm -- 29.85 in1010.8 mb - 0.00 in0.0 mm 0.00 in0.0 mm